Time,TemperatureF,DewpointF,PressureIn,WindDirection,WindDirectionDegrees,WindSpeedMPH,WindSpeedGustMPH,Humidity,HourlyPrecipIn,Conditions,Clouds,dailyrainin,SoftwareType,DateUTC
2013-05-28 00:02:00,77.0,70.0,29.85,SSW,210,11.0,16.0,79,0.00,,,-99.99,,2013-05-28 05:02:00,
2013-05-28 00:12:00,77.0,70.0,29.85,SSW,210,11.0,16.0,79,0.00,,,-99.99,,2013-05-28 05:12:00,
2013-05-28 00:22:00,77.0,70.0,29.85,SSW,210,11.0,16.0,79,0.00,,,-99.99,,2013-05-28 05:22:00,
2013-05-28 00:33:00,77.0,70.0,29.85,SSW,210,11.0,16.0,79,0.00,,,-99.99,,2013-05-28 05:33:00,
2013-05-28 00:50:00,75.0,67.0,29.84,SE,127,4.0,14.0,77,0.00,,,-99.99,,2013-05-28 05:50:00,
2013-05-28 00:52:00,75.0,68.0,29.85,SSW,195,11.0,13.0,79,0.00,,,-99.99,,2013-05-28 05:52:00,
2013-05-28 01:02:00,75.0,67.0,29.84,SE,127,4.0,14.0,77,0.00,,,-99.99,,2013-05-28 06:02:00,
2013-05-28 01:12:00,75.0,67.0,29.84,SE,127,4.0,14.0,77,0.00,,,-99.99,,2013-05-28 06:12:00,
2013-05-28 01:21:00,75.0,67.0,29.84,SE,127,4.0,14.0,77,0.00,,,-99.99,,2013-05-28 06:21:00,
2013-05-28 01:31:00,75.0,67.0,29.84,SE,127,4.0,14.0,77,0.00,,,-99.99,,2013-05-28 06:31:00,
2013-05-28 01:41:00,75.0,67.0,29.84,SE,127,4.0,14.0,77,0.00,,,-99.99,,2013-05-28 06:41:00,
2013-05-28 02:52:00,72.0,66.0,29.81,SSE,156,6.0,13.0,82,0.00,,,-99.99,,2013-05-28 07:52:00,
2013-05-28 03:02:00,72.0,66.0,29.81,SSE,156,6.0,13.0,82,0.00,,,-99.99,,2013-05-28 08:02:00,
2013-05-28 03:12:00,72.0,67.0,29.82,South,188,7.0,11.0,84,0.00,,,-99.99,,2013-05-28 08:12:00,
2013-05-28 03:22:00,72.0,67.0,29.82,South,188,7.0,11.0,84,0.00,,,-99.99,,2013-05-28 08:22:00,
2013-05-28 03:32:00,71.0,66.0,29.81,SSE,162,4.0,8.0,85,0.00,,,-99.99,,2013-05-28 08:32:00,
2013-05-28 03:42:00,71.0,66.0,29.81,SSE,162,4.0,8.0,85,0.00,,,-99.99,,2013-05-28 08:42:00,
2013-05-28 03:52:00,71.0,66.0,29.81,SSE,162,4.0,8.0,85,0.00,,,-99.99,,2013-05-28 08:52:00,
2013-05-28 04:01:00,70.0,66.0,29.80,SSE,165,7.0,9.0,86,0.00,,,-99.99,,2013-05-28 09:01:00,
2013-05-28 04:11:00,70.0,65.0,29.81,South,180,4.0,10.0,85,0.00,,,-99.99,,2013-05-28 09:11:00,
2013-05-28 04:21:00,70.0,65.0,29.81,South,180,4.0,10.0,85,0.00,,,-99.99,,2013-05-28 09:21:00,
2013-05-28 04:33:00,70.0,65.0,29.81,South,180,4.0,10.0,85,0.00,,,-99.99,,2013-05-28 09:33:00,
2013-05-28 04:42:00,70.0,65.0,29.81,South,180,4.0,10.0,85,0.00,,,-99.99,,2013-05-28 09:42:00,
2013-05-28 04:54:00,69.0,64.0,29.81,South,177,5.0,8.0,84,0.00,,,-99.99,,2013-05-28 09:54:00,
2013-05-28 05:03:00,69.0,64.0,29.81,South,177,5.0,8.0,84,0.00,,,-99.99,,2013-05-28 10:03:00,
2013-05-28 05:12:00,69.0,64.0,29.81,South,177,5.0,8.0,84,0.00,,,-99.99,,2013-05-28 10:12:00,
2013-05-28 05:22:00,69.0,64.0,29.81,SSE,154,3.0,10.0,84,0.00,,,-99.99,,2013-05-28 10:22:00,
2013-05-28 05:32:00,69.0,64.0,29.82,SSE,158,2.0,12.0,84,0.00,,,-99.99,,2013-05-28 10:32:00,
2013-05-28 05:43:00,69.0,64.0,29.82,SSE,158,2.0,12.0,84,0.00,,,-99.99,,2013-05-28 10:43:00,
2013-05-28 05:53:00,68.0,63.0,29.82,South,191,1.0,7.0,85,0.00,,,-99.99,,2013-05-28 10:53:00,
2013-05-28 06:02:00,68.0,63.0,29.82,SSW,208,5.0,8.0,85,0.00,,,-99.99,,2013-05-28 11:02:00,
2013-05-28 06:11:00,68.0,63.0,29.82,SSW,208,5.0,8.0,85,0.00,,,-99.99,,2013-05-28 11:11:00,
2013-05-28 06:22:00,68.0,63.0,29.82,SSW,208,5.0,8.0,85,0.00,,,-99.99,,2013-05-28 11:22:00,
2013-05-28 06:32:00,68.0,63.0,29.81,ESE,123,7.0,12.0,85,0.00,,,-99.99,,2013-05-28 11:32:00,
2013-05-28 06:42:00,68.0,63.0,29.81,ESE,123,7.0,12.0,85,0.00,,,-99.99,,2013-05-28 11:42:00,
2013-05-28 06:52:00,68.0,63.0,29.81,South,191,4.0,9.0,85,0.00,,,-99.99,,2013-05-28 11:52:00,
2013-05-28 07:01:00,68.0,63.0,29.81,South,191,4.0,9.0,85,0.00,,,-99.99,,2013-05-28 12:01:00,
2013-05-28 07:10:00,69.0,64.0,29.82,SE,141,3.0,9.0,83,0.00,,,-99.99,,2013-05-28 12:10:00,
2013-05-28 07:11:00,68.0,63.0,29.81,South,191,4.0,9.0,85,0.00,,,-99.99,,2013-05-28 12:11:00,
2013-05-28 07:21:00,68.0,63.0,29.81,South,191,4.0,9.0,85,0.00,,,-99.99,,2013-05-28 12:21:00,
2013-05-28 07:32:00,69.0,64.0,29.82,SE,141,3.0,9.0,83,0.00,,,-99.99,,2013-05-28 12:32:00,
2013-05-28 07:42:00,69.0,64.0,29.82,SE,141,3.0,9.0,83,0.00,,,-99.99,,2013-05-28 12:42:00,
2013-05-28 07:52:00,69.0,64.0,29.82,SE,141,3.0,9.0,83,0.00,,,-99.99,,2013-05-28 12:52:00,
2013-05-28 08:01:00,69.0,64.0,29.82,SE,141,3.0,9.0,83,0.00,,,-99.99,,2013-05-28 13:01:00,
2013-05-28 09:21:00,73.0,64.0,29.85,SSW,207,5.0,16.0,74,0.00,,,-99.99,,2013-05-28 14:21:00,
2013-05-28 09:32:00,73.0,64.0,29.85,SSW,207,5.0,16.0,74,0.00,,,-99.99,,2013-05-28 14:32:00,
2013-05-28 09:42:00,73.0,64.0,29.85,SSW,207,5.0,16.0,74,0.00,,,-99.99,,2013-05-28 14:42:00,
2013-05-28 09:52:00,75.0,65.0,29.85,SSW,205,6.0,17.0,71,0.00,,,-99.99,,2013-05-28 14:52:00,
2013-05-28 10:01:00,75.0,65.0,29.85,SSW,205,6.0,17.0,71,0.00,,,-99.99,,2013-05-28 15:01:00,
2013-05-28 10:11:00,75.0,65.0,29.84,South,169,8.0,14.0,71,0.00,,,-99.99,,2013-05-28 15:11:00,
2013-05-28 10:21:00,75.0,65.0,29.84,South,169,8.0,14.0,71,0.00,,,-99.99,,2013-05-28 15:21:00,
2013-05-28 10:32:00,75.0,65.0,29.85,SSW,211,6.0,16.0,71,0.00,,,-99.99,,2013-05-28 15:32:00,
2013-05-28 10:43:00,75.0,65.0,29.85,SSW,211,6.0,16.0,71,0.00,,,-99.99,,2013-05-28 15:43:00,
2013-05-28 10:53:00,75.0,65.0,29.85,SSW,211,6.0,16.0,71,0.00,,,-99.99,,2013-05-28 15:53:00,
2013-05-28 11:03:00,76.0,65.0,29.84,SSW,204,8.0,16.0,68,0.00,,,-99.99,,2013-05-28 16:03:00,
2013-05-28 11:12:00,76.0,65.0,29.84,SSW,204,8.0,16.0,68,0.00,,,-99.99,,2013-05-28 16:12:00,
2013-05-28 11:22:00,76.0,65.0,29.84,SSW,204,8.0,16.0,68,0.00,,,-99.99,,2013-05-28 16:22:00,
2013-05-28 11:33:00,76.0,65.0,29.84,SSW,204,8.0,16.0,68,0.00,,,-99.99,,2013-05-28 16:33:00,
2013-05-28 11:42:00,76.0,65.0,29.84,SSW,204,8.0,16.0,68,0.00,,,-99.99,,2013-05-28 16:42:00,
2013-05-28 11:52:00,76.0,65.0,29.84,SSW,204,8.0,16.0,68,0.00,,,-99.99,,2013-05-28 16:52:00,
2013-05-28 12:02:00,79.0,64.0,29.85,SSE,148,9.0,17.0,61,0.00,,,-99.99,,2013-05-28 17:02:00,
2013-05-28 12:12:00,79.0,64.0,29.85,SSE,148,9.0,17.0,61,0.00,,,-99.99,,2013-05-28 17:12:00,
2013-05-28 12:22:00,79.0,64.0,29.85,SSE,148,9.0,17.0,61,0.00,,,-99.99,,2013-05-28 17:22:00,
2013-05-28 12:32:00,79.0,64.0,29.85,SSE,148,9.0,17.0,61,0.00,,,-99.99,,2013-05-28 17:32:00,
2013-05-28 12:42:00,79.0,64.0,29.85,SSE,148,9.0,17.0,61,0.00,,,-99.99,,2013-05-28 17:42:00,
2013-05-28 14:31:00,82.0,68.0,29.81,ESE,123,12.0,16.0,62,0.00,,,-99.99,,2013-05-28 19:31:00,
2013-05-28 14:52:00,82.0,68.0,29.81,ESE,123,12.0,16.0,62,0.00,,,-99.99,,2013-05-28 19:52:00,
2013-05-28 15:01:00,82.0,68.0,29.81,ESE,123,12.0,16.0,62,0.00,,,-99.99,,2013-05-28 20:01:00,
2013-05-28 15:11:00,82.0,68.0,29.81,ESE,123,12.0,16.0,62,0.00,,,-99.99,,2013-05-28 20:11:00,
2013-05-28 15:22:00,82.0,68.0,29.81,ESE,123,12.0,16.0,62,0.00,,,-99.99,,2013-05-28 20:22:00,
2013-05-28 16:11:00,86.0,66.0,29.77,South,186,16.0,20.0,52,0.00,,,-99.99,,2013-05-28 21:11:00,
2013-05-28 16:21:00,86.0,66.0,29.77,South,186,16.0,20.0,52,0.00,,,-99.99,,2013-05-28 21:21:00,
2013-05-28 16:33:00,86.0,66.0,29.77,SSE,165,7.0,19.0,51,0.00,,,-99.99,,2013-05-28 21:33:00,
2013-05-28 16:43:00,86.0,66.0,29.77,SSE,165,7.0,19.0,51,0.00,,,-99.99,,2013-05-28 21:43:00,
2013-05-28 16:53:00,86.0,66.0,29.77,SSE,165,7.0,19.0,51,0.00,,,-99.99,,2013-05-28 21:53:00,
2013-05-28 17:02:00,86.0,66.0,29.77,SSE,165,7.0,19.0,51,0.00,,,-99.99,,2013-05-28 22:02:00,
2013-05-28 17:33:00,86.0,65.0,29.75,SSW,203,11.0,17.0,50,0.00,,,-99.99,,2013-05-28 22:33:00,
2013-05-28 17:42:00,86.0,65.0,29.75,SSW,203,11.0,17.0,50,0.00,,,-99.99,,2013-05-28 22:42:00,
2013-05-28 17:52:00,86.0,65.0,29.75,SSW,203,11.0,17.0,50,0.00,,,-99.99,,2013-05-28 22:52:00,
2013-05-28 18:02:00,86.0,65.0,29.75,SSW,203,11.0,17.0,50,0.00,,,-99.99,,2013-05-28 23:02:00,
2013-05-28 18:11:00,86.0,65.0,29.75,SSW,203,11.0,17.0,50,0.00,,,-99.99,,2013-05-28 23:11:00,
2013-05-28 18:32:00,85.0,65.0,29.73,East,99,11.0,17.0,52,0.00,,,-99.99,,2013-05-28 23:32:00,
2013-05-28 18:42:00,85.0,65.0,29.73,East,99,11.0,17.0,52,0.00,,,-99.99,,2013-05-28 23:42:00,
2013-05-28 18:52:00,85.0,65.0,29.73,East,99,11.0,17.0,52,0.00,,,-99.99,,2013-05-28 23:52:00,
2013-05-28 19:02:00,85.0,65.0,29.73,East,99,11.0,17.0,52,0.00,,,-99.99,,2013-05-29 00:02:00,
2013-05-28 19:11:00,85.0,65.0,29.73,East,99,11.0,17.0,52,0.00,,,-99.99,,2013-05-29 00:11:00,
2013-05-28 19:22:00,83.0,65.0,29.73,SSE,167,10.0,18.0,55,0.00,,,-99.99,,2013-05-29 00:22:00,
2013-05-28 19:32:00,83.0,65.0,29.73,SSE,167,10.0,18.0,55,0.00,,,-99.99,,2013-05-29 00:32:00,
2013-05-28 19:42:00,83.0,65.0,29.73,SSE,167,10.0,18.0,55,0.00,,,-99.99,,2013-05-29 00:42:00,
2013-05-28 19:52:00,83.0,65.0,29.73,SSE,167,10.0,18.0,55,0.00,,,-99.99,,2013-05-29 00:52:00,
2013-05-28 20:01:00,83.0,65.0,29.73,SSE,167,10.0,18.0,55,0.00,,,-99.99,,2013-05-29 01:01:00,
2013-05-28 20:11:00,81.0,66.0,29.75,ESE,115,7.0,18.0,60,0.00,,,-99.99,,2013-05-29 01:11:00,
2013-05-28 20:22:00,81.0,66.0,29.75,ESE,115,7.0,18.0,60,0.00,,,-99.99,,2013-05-29 01:22:00,
2013-05-28 20:32:00,81.0,66.0,29.75,ESE,115,7.0,18.0,60,0.00,,,-99.99,,2013-05-29 01:32:00,
2013-05-28 20:42:00,81.0,66.0,29.75,ESE,115,7.0,18.0,60,0.00,,,-99.99,,2013-05-29 01:42:00,
2013-05-28 20:52:00,81.0,66.0,29.75,ESE,115,7.0,18.0,60,0.00,,,-99.99,,2013-05-29 01:52:00,
2013-05-28 21:02:00,80.0,67.0,29.76,ESE,113,6.0,13.0,64,0.00,,,-99.99,,2013-05-29 02:02:00,
2013-05-28 21:12:00,80.0,67.0,29.77,SE,128,9.0,15.0,65,0.00,,,-99.99,,2013-05-29 02:12:00,
2013-05-28 21:21:00,80.0,67.0,29.77,SE,128,9.0,15.0,65,0.00,,,-99.99,,2013-05-29 02:21:00,
2013-05-28 21:32:00,80.0,67.0,29.77,SE,128,9.0,15.0,65,0.00,,,-99.99,,2013-05-29 02:32:00,
2013-05-28 21:42:00,80.0,67.0,29.77,SE,128,9.0,15.0,65,0.00,,,-99.99,,2013-05-29 02:42:00,
2013-05-28 21:51:00,80.0,67.0,29.77,SE,128,9.0,15.0,65,0.00,,,-99.99,,2013-05-29 02:51:00,
2013-05-28 22:21:00,78.0,68.0,29.78,SE,145,3.0,14.0,71,0.00,,,-99.99,,2013-05-29 03:21:00,
2013-05-28 22:33:00,78.0,68.0,29.78,SE,145,3.0,14.0,71,0.00,,,-99.99,,2013-05-29 03:33:00,
2013-05-28 22:43:00,78.0,68.0,29.78,SE,145,3.0,14.0,71,0.00,,,-99.99,,2013-05-29 03:43:00,
2013-05-28 22:53:00,77.0,68.0,29.78,SSE,160,5.0,19.0,73,0.00,,,-99.99,,2013-05-29 03:53:00,
2013-05-28 23:02:00,77.0,68.0,29.80,SSE,160,13.0,19.0,73,0.00,,,-99.99,,2013-05-29 04:02:00,
2013-05-28 23:13:00,77.0,68.0,29.80,SSE,151,6.0,20.0,73,0.00,,,-99.99,,2013-05-29 04:13:00,
2013-05-28 23:23:00,77.0,68.0,29.80,SSE,151,6.0,20.0,73,0.00,,,-99.99,,2013-05-29 04:23:00,
2013-05-28 23:33:00,77.0,68.0,29.80,SSE,151,6.0,20.0,73,0.00,,,-99.99,,2013-05-29 04:33:00,
2013-05-28 23:42:00,77.0,68.0,29.80,SSE,151,6.0,20.0,73,0.00,,,-99.99,,2013-05-29 04:42:00,
2013-05-28 23:52:00,76.0,67.0,29.81,SSE,166,10.0,21.0,74,0.00,,,-99.99,,2013-05-29 04:52:00,